Time;durP1;ratioP1;P1;durP2;ratioP2;P2;SDS_P1;SDS_P2;PMS_P1;PMS_P2;Temp;Humidity;BMP_temperature;BMP_pressure;BME280_temperature;BME280_humidity;BME280_pressure;Samples;Min_cycle;Max_cycle;Signal;HPM_P1;HPM_P2
2023/10/07 00:01:25;;;;;;;10.73;4.43;;;16.00;99.90;;;;;;4939948;29;20189;-89
2023/10/07 00:03:56;;;;;;;10.90;5.18;;;16.00;99.90;;;;;;4939447;28;20612;-89
2023/10/07 00:06:27;;;;;;;9.45;4.72;;;15.90;99.90;;;;;;4939647;29;20196;-94
2023/10/07 00:08:53;;;;;;;13.82;4.93;;;15.90;99.90;;;;;;4939717;29;20597;-90
2023/10/07 00:11:20;;;;;;;9.65;4.55;;;15.90;99.90;;;;;;4939935;29;20178;-87
2023/10/07 00:13:47;;;;;;;12.43;4.93;;;15.90;99.90;;;;;;4939661;29;20226;-91
2023/10/07 00:16:16;;;;;;;11.35;4.88;;;15.90;99.90;;;;;;4939859;29;20185;-91
2023/10/07 00:18:43;;;;;;;13.50;5.13;;;15.90;99.90;;;;;;4939841;29;20684;-90
2023/10/07 00:21:15;;;;;;;10.25;4.90;;;15.80;99.90;;;;;;4940105;29;20185;-89
2023/10/07 00:23:42;;;;;;;14.90;4.82;;;15.80;99.90;;;;;;4939774;29;20208;-88
2023/10/07 00:26:09;;;;;;;10.68;4.82;;;15.90;99.90;;;;;;4939631;29;20185;-90
2023/10/07 00:28:36;;;;;;;9.45;4.60;;;15.90;99.90;;;;;;4939683;29;20181;-92
2023/10/07 00:31:06;;;;;;;9.32;4.82;;;15.90;99.90;;;;;;4939741;29;20185;-93
2023/10/07 00:39:08;;;;;;;9.57;4.68;;;15.90;99.90;;;;;;4960010;29;20502;-88
2023/10/07 00:41:50;;;;;;;11.50;4.85;;;15.90;99.90;;;;;;4943257;29;20170;-89
2023/10/07 00:44:32;;;;;;;14.30;5.13;;;15.90;99.90;;;;;;4943437;29;20178;-88
2023/10/07 00:52:29;;;;;;;11.70;5.30;;;16.00;99.90;;;;;;4960068;29;20256;-90
2023/10/07 01:00:55;;;;;;;9.43;4.70;;;16.00;99.90;;;;;;4960292;29;20597;-88
2023/10/07 01:03:13;;;;;;;17.30;5.47;;;16.00;99.90;;;;;;4942801;29;20189;-91
2023/10/07 01:05:53;;;;;;;11.50;4.68;;;16.00;99.90;;;;;;4942803;29;20727;-89
2023/10/07 01:08:20;;;;;;;9.02;4.63;;;16.00;99.90;;;;;;4942677;29;20536;-89
2023/10/07 01:10:54;;;;;;;11.10;4.97;;;16.00;99.90;;;;;;4957773;29;20185;-89
2023/10/07 01:13:29;;;;;;;14.30;5.20;;;16.00;99.90;;;;;;4941821;29;20205;-89
2023/10/07 01:15:56;;;;;;;14.27;4.97;;;16.00;99.90;;;;;;4942194;29;20179;-89
2023/10/07 01:18:22;;;;;;;11.88;5.18;;;16.00;99.90;;;;;;4942341;29;20264;-88
2023/10/07 01:23:18;;;;;;;10.93;4.72;;;16.00;99.90;;;;;;4959398;29;20181;-89
2023/10/07 01:25:44;;;;;;;9.07;4.80;;;16.00;99.90;;;;;;5370390;23;20247;-92
2023/10/07 01:28:14;;;;;;;8.77;4.57;;;16.00;99.90;;;;;;4969819;29;20181;-95
2023/10/07 01:33:38;;;;;;;10.85;4.57;;;16.00;99.90;;;;;;4976126;29;20217;-93
2023/10/07 01:36:24;;;;;;;8.88;4.65;;;16.00;99.90;;;;;;4973850;29;20185;-92
2023/10/07 01:38:52;;;;;;;10.43;4.72;;;16.00;99.90;;;;;;4954937;29;20181;-96
2023/10/07 01:41:37;;;;;;;11.93;4.63;;;16.00;99.90;;;;;;4979163;23;20725;-93
2023/10/07 01:44:06;;;;;;;10.25;4.32;;;16.00;99.90;;;;;;4972934;29;20188;-94
2023/10/07 01:46:56;;;;;;;10.27;4.55;;;16.00;99.90;;;;;;4969983;29;20185;-95
2023/10/07 01:49:22;;;;;;;14.77;4.53;;;16.00;99.90;;;;;;4970165;28;20160;-92
2023/10/07 01:51:52;;;;;;;9.65;4.22;;;16.00;99.90;;;;;;4969918;29;20188;-94
2023/10/07 01:54:21;;;;;;;9.10;4.43;;;16.00;99.90;;;;;;4969658;29;20231;-93
2023/10/07 01:57:04;;;;;;;11.13;4.75;;;16.00;99.90;;;;;;4968678;29;20231;-96
2023/10/07 01:59:32;;;;;;;10.93;4.40;;;16.00;99.90;;;;;;4970039;29;20185;-93
2023/10/07 02:02:11;;;;;;;10.30;4.75;;;16.00;99.90;;;;;;4968396;28;20175;-91
2023/10/07 02:04:37;;;;;;;8.70;4.35;;;16.00;99.90;;;;;;4969944;28;20200;-92
2023/10/07 02:07:04;;;;;;;11.98;4.82;;;16.00;99.90;;;;;;4988557;23;20273;-95
2023/10/07 02:09:36;;;;;;;12.55;4.75;;;16.00;99.90;;;;;;4977975;23;20237;-92
2023/10/07 02:12:11;;;;;;;10.75;4.50;;;16.00;99.90;;;;;;4982522;23;20241;-93
2023/10/07 02:14:37;;;;;;;8.95;4.22;;;16.00;99.90;;;;;;4968832;29;20248;-96
2023/10/07 02:17:12;;;;;;;11.55;4.80;;;16.00;99.90;;;;;;4968694;29;20264;-91
2023/10/07 02:19:40;;;;;;;10.93;4.43;;;16.00;99.90;;;;;;4992394;23;20542;-92
2023/10/07 02:22:07;;;;;;;10.55;4.72;;;16.00;99.90;;;;;;5006509;23;20188;-92
2023/10/07 02:24:35;;;;;;;10.93;4.70;;;16.00;99.90;;;;;;4971548;28;20228;-96
2023/10/07 02:27:18;;;;;;;10.07;5.07;;;16.00;99.90;;;;;;4950043;29;20185;-93
2023/10/07 02:29:51;;;;;;;14.23;4.93;;;16.00;99.90;;;;;;4994057;23;20268;-90
2023/10/07 02:32:18;;;;;;;14.40;5.28;;;16.00;99.90;;;;;;4946432;29;20170;-94
2023/10/07 02:34:51;;;;;;;11.73;4.95;;;16.00;99.90;;;;;;4949690;29;20244;-95
2023/10/07 02:37:25;;;;;;;10.98;4.90;;;16.00;99.90;;;;;;4946687;29;20177;-92
2023/10/07 02:40:00;;;;;;;11.77;5.05;;;16.00;99.90;;;;;;4943782;29;20178;-92
2023/10/07 02:42:28;;;;;;;10.73;4.80;;;16.00;99.90;;;;;;4942004;29;20245;-90
2023/10/07 02:45:20;;;;;;;10.07;4.68;;;16.00;99.90;;;;;;4941739;29;20182;-95
2023/10/07 02:47:51;;;;;;;11.02;4.70;;;16.00;99.90;;;;;;4946150;29;20182;-93
2023/10/07 02:50:21;;;;;;;9.43;4.78;;;16.00;99.90;;;;;;4950134;29;20174;-91
2023/10/07 02:52:47;;;;;;;11.55;4.80;;;16.00;99.90;;;;;;5152363;23;20247;-94
2023/10/07 02:57:55;;;;;;;10.35;5.10;;;16.00;99.90;;;;;;4971549;28;20237;-92
2023/10/07 03:00:29;;;;;;;7.72;4.65;;;16.00;99.90;;;;;;4971707;28;20177;-91
2023/10/07 03:05:44;;;;;;;9.45;4.78;;;16.00;99.90;;;;;;4969397;28;20161;-95
2023/10/07 03:08:40;;;;;;;13.50;4.88;;;16.00;99.90;;;;;;4966163;29;20181;-96
2023/10/07 03:11:11;;;;;;;8.77;4.47;;;16.00;99.90;;;;;;4964835;29;20209;-94
2023/10/07 03:13:45;;;;;;;8.68;4.85;;;16.00;99.90;;;;;;5002239;23;20702;-95
2023/10/07 03:24:11;;;;;;;14.32;5.00;;;15.90;99.90;;;;;;4985881;28;20168;-94
2023/10/07 03:26:46;;;;;;;12.18;5.20;;;15.90;99.90;;;;;;4969069;28;20177;-93
2023/10/07 03:29:29;;;;;;;9.65;5.00;;;15.90;99.90;;;;;;4968492;28;20180;-92
2023/10/07 03:32:07;;;;;;;11.30;5.25;;;15.90;99.90;;;;;;4989680;28;20188;-92
2023/10/07 03:34:42;;;;;;;12.75;5.38;;;16.00;99.90;;;;;;4987968;28;20207;-93
2023/10/07 03:42:18;;;;;;;12.55;5.10;;;15.90;99.90;;;;;;4981816;28;20195;-91
2023/10/07 03:44:46;;;;;;;13.20;4.75;;;15.90;99.90;;;;;;4965206;28;20521;-94
2023/10/07 03:47:15;;;;;;;9.15;4.70;;;15.90;99.90;;;;;;4949654;28;20187;-94
2023/10/07 03:49:41;;;;;;;12.48;5.07;;;15.90;99.90;;;;;;4964029;28;20179;-94
2023/10/07 03:52:12;;;;;;;14.88;4.90;;;15.90;99.90;;;;;;4963202;28;20180;-90
2023/10/07 03:54:44;;;;;;;13.02;4.90;;;15.90;99.90;;;;;;4964979;28;20598;-92
2023/10/07 03:57:10;;;;;;;8.20;4.47;;;16.00;99.90;;;;;;4989431;23;20260;-93
2023/10/07 03:59:39;;;;;;;8.18;4.40;;;16.00;99.90;;;;;;4942773;29;20186;-95
2023/10/07 04:04:59;;;;;;;10.57;4.97;;;16.00;99.90;;;;;;4944556;29;20209;-92
2023/10/07 04:07:29;;;;;;;11.25;5.20;;;16.00;99.90;;;;;;4941991;29;20579;-96
2023/10/07 04:10:31;;;;;;;13.90;5.15;;;16.00;99.90;;;;;;4940940;29;20177;-93
2023/10/07 04:12:47;;;;;;;10.98;5.60;;;15.90;99.90;;;;;;4945046;29;20192;-91
2023/10/07 04:15:17;;;;;;;13.07;5.50;;;15.90;99.90;;;;;;4928989;29;20225;-94
2023/10/07 04:17:45;;;;;;;11.50;5.50;;;15.80;99.90;;;;;;4944308;29;20253;-92
2023/10/07 04:23:24;;;;;;;14.73;5.47;;;15.50;99.90;;;;;;4905850;29;20182;-89
2023/10/07 04:25:56;;;;;;;12.50;5.65;;;15.50;99.90;;;;;;4915606;29;20154;-94
2023/10/07 04:28:43;;;;;;;11.48;5.57;;;15.50;99.90;;;;;;4945540;23;20309;-96
2023/10/07 04:31:12;;;;;;;12.38;6.15;;;15.40;99.90;;;;;;4936787;29;20205;-95
2023/10/07 04:33:47;;;;;;;10.57;6.30;;;15.40;99.90;;;;;;4935695;29;20205;-95
2023/10/07 04:36:15;;;;;;;11.55;6.75;;;15.40;99.90;;;;;;4921565;29;20185;-93
2023/10/07 04:38:56;;;;;;;16.13;6.43;;;15.30;99.90;;;;;;4936504;29;20209;-93
2023/10/07 04:43:59;;;;;;;10.77;6.97;;;15.20;99.90;;;;;;4951767;29;20268;-93
2023/10/07 04:46:28;;;;;;;13.02;7.50;;;15.20;99.90;;;;;;4938963;29;20186;-90
2023/10/07 04:49:12;;;;;;;12.00;7.68;;;15.10;99.90;;;;;;4936036;29;20208;-95
2023/10/07 04:54:07;;;;;;;17.05;9.20;;;15.00;99.90;;;;;;4957410;29;20301;-88
2023/10/07 04:56:33;;;;;;;16.00;8.55;;;14.90;99.90;;;;;;4941080;29;20194;-94
2023/10/07 04:59:06;;;;;;;17.58;9.07;;;14.80;99.90;;;;;;4936152;29;20205;-86
2023/10/07 05:01:55;;;;;;;16.23;9.10;;;14.80;99.90;;;;;;4958297;29;20241;-95
2023/10/07 05:04:24;;;;;;;14.77;8.88;;;14.70;99.90;;;;;;4959152;29;20206;-93
2023/10/07 05:06:53;;;;;;;14.80;8.85;;;14.70;99.90;;;;;;4955433;29;20202;-90
2023/10/07 05:09:26;;;;;;;14.63;9.57;;;14.70;99.90;;;;;;4941507;29;20189;-95
2023/10/07 05:11:52;;;;;;;15.10;9.52;;;14.70;99.90;;;;;;4934860;29;20174;-93
2023/10/07 05:14:17;;;;;;;17.70;10.20;;;14.70;99.90;;;;;;4948080;29;20212;-95
2023/10/07 05:16:46;;;;;;;14.88;9.68;;;14.70;99.90;;;;;;5006970;23;20189;-96
2023/10/07 05:19:34;;;;;;;14.57;9.98;;;14.70;99.90;;;;;;4975824;29;20197;-87
2023/10/07 05:22:05;;;;;;;15.05;10.30;;;14.70;99.90;;;;;;4954046;29;20187;-94
2023/10/07 05:24:32;;;;;;;15.35;10.07;;;14.70;99.90;;;;;;4972558;28;20555;-96
2023/10/07 05:27:03;;;;;;;18.02;11.13;;;14.70;99.90;;;;;;4955042;29;20161;-89
2023/10/07 05:29:29;;;;;;;15.65;11.15;;;14.70;99.90;;;;;;4959198;29;20180;-88
2023/10/07 05:32:00;;;;;;;15.50;11.27;;;14.70;99.90;;;;;;4962778;29;20193;-89
2023/10/07 05:34:29;;;;;;;16.30;11.23;;;14.70;99.90;;;;;;4960933;29;20205;-95
2023/10/07 05:37:04;;;;;;;16.98;11.98;;;14.70;99.90;;;;;;4957866;29;20193;-92
2023/10/07 05:39:41;;;;;;;19.23;11.88;;;14.70;99.90;;;;;;4959542;29;20253;-93
2023/10/07 05:42:13;;;;;;;15.77;11.93;;;14.70;99.90;;;;;;4962435;29;20189;-88
2023/10/07 05:44:39;;;;;;;14.65;12.00;;;14.70;99.90;;;;;;4956965;29;20181;-94
2023/10/07 05:47:05;;;;;;;15.90;11.75;;;14.70;99.90;;;;;;4955776;29;20189;-96
2023/10/07 05:49:33;;;;;;;14.65;11.57;;;14.70;99.90;;;;;;4951865;29;20227;-96
2023/10/07 05:51:59;;;;;;;16.75;12.32;;;14.70;99.90;;;;;;4973643;29;20192;-95
2023/10/07 05:54:28;;;;;;;15.13;11.88;;;14.70;99.90;;;;;;4971261;29;20213;-96
2023/10/07 05:56:55;;;;;;;15.75;12.65;;;14.80;99.90;;;;;;4956231;29;20268;-93
2023/10/07 06:00:01;;;;;;;18.88;12.52;;;14.80;99.90;;;;;;4958833;29;20181;-95
2023/10/07 06:02:27;;;;;;;19.05;12.05;;;14.80;99.90;;;;;;4958079;29;20212;-87
2023/10/07 06:04:53;;;;;;;18.00;12.52;;;14.80;99.90;;;;;;4952967;29;20248;-95
2023/10/07 06:07:21;;;;;;;16.60;11.98;;;14.80;99.90;;;;;;4972244;29;20185;-93
2023/10/07 06:09:47;;;;;;;16.98;12.45;;;14.80;99.90;;;;;;4978349;29;20225;-96
2023/10/07 06:12:15;;;;;;;15.38;12.05;;;14.90;99.90;;;;;;4962360;28;20181;-94
2023/10/07 06:14:42;;;;;;;17.17;12.60;;;14.90;99.90;;;;;;4977228;29;20205;-88
2023/10/07 06:17:10;;;;;;;17.55;12.25;;;14.90;99.90;;;;;;4961864;29;20229;-96
2023/10/07 06:20:37;;;;;;;18.70;13.27;;;14.90;99.90;;;;;;4977110;28;20188;-93
2023/10/07 06:23:16;;;;;;;19.13;13.70;;;15.00;99.90;;;;;;4955072;29;20204;-96
2023/10/07 06:25:48;;;;;;;18.45;12.80;;;15.00;99.90;;;;;;4953077;29;20184;-93
2023/10/07 06:31:17;;;;;;;18.10;12.95;;;15.10;99.90;;;;;;4971079;29;20158;-95
2023/10/07 06:33:59;;;;;;;20.80;13.75;;;15.10;99.90;;;;;;4953077;29;20205;-91
2023/10/07 06:36:25;;;;;;;20.50;13.07;;;15.10;99.90;;;;;;4935665;29;20636;-94
2023/10/07 06:38:58;;;;;;;17.25;13.32;;;15.10;99.90;;;;;;4943914;29;20181;-88
2023/10/07 06:41:28;;;;;;;17.27;12.75;;;15.10;99.90;;;;;;4941314;29;20178;-88
2023/10/07 06:43:59;;;;;;;19.00;13.57;;;15.10;99.90;;;;;;4941201;29;20240;-88
2023/10/07 06:46:29;;;;;;;19.10;14.18;;;15.10;99.90;;;;;;4941668;29;20177;-90
2023/10/07 06:48:56;;;;;;;18.80;14.30;;;15.10;99.90;;;;;;4954858;29;20182;-88
2023/10/07 06:51:23;;;;;;;22.13;14.48;;;15.10;99.90;;;;;;4926017;29;20194;-93
2023/10/07 06:53:49;;;;;;;21.88;15.05;;;15.10;99.90;;;;;;4927334;29;20224;-94
2023/10/07 06:56:23;;;;;;;18.88;13.20;;;15.10;99.90;;;;;;4931385;29;20186;-90
2023/10/07 06:58:59;;;;;;;20.50;14.52;;;15.20;99.90;;;;;;4926607;29;20182;-92
2023/10/07 07:04:14;;;;;;;18.17;14.85;;;15.20;99.90;;;;;;4949690;29;20176;-90
2023/10/07 07:06:44;;;;;;;20.30;14.73;;;15.20;99.90;;;;;;4929157;29;20182;-96
2023/10/07 07:09:42;;;;;;;20.00;14.65;;;15.20;99.90;;;;;;4931691;29;20206;-96
2023/10/07 07:12:09;;;;;;;22.42;15.07;;;15.20;99.90;;;;;;4934605;29;20233;-92
2023/10/07 07:14:41;;;;;;;19.67;15.23;;;15.20;99.90;;;;;;4932679;29;20216;-91
2023/10/07 07:22:49;;;;;;;24.00;15.68;;;15.30;99.90;;;;;;4935229;29;20201;-89
2023/10/07 07:27:52;;;;;;;22.70;15.77;;;15.30;99.90;;;;;;4944014;29;20166;-92
2023/10/07 07:30:35;;;;;;;20.77;16.20;;;15.40;99.90;;;;;;4924751;29;20649;-91
2023/10/07 07:33:11;;;;;;;24.50;16.58;;;15.40;99.90;;;;;;4924954;29;20257;-89
2023/10/07 07:35:40;;;;;;;24.30;16.85;;;15.40;99.90;;;;;;4926700;29;20224;-90
2023/10/07 07:38:29;;;;;;;24.77;17.08;;;15.40;99.90;;;;;;4928406;29;20218;-88
2023/10/07 07:41:55;;;;;;;25.55;18.25;;;15.40;99.90;;;;;;4928939;29;20192;-93
2023/10/07 07:43:59;;;;;;;22.05;17.60;;;15.40;99.90;;;;;;4933211;29;20182;-89
2023/10/07 07:46:51;;;;;;;26.25;18.55;;;15.40;99.90;;;;;;4928883;29;20178;-90
2023/10/07 07:49:31;;;;;;;23.92;19.98;;;15.40;99.90;;;;;;4927429;29;20166;-91
2023/10/07 07:52:02;;;;;;;28.58;19.42;;;15.40;99.90;;;;;;4925606;29;20174;-89
2023/10/07 07:54:29;;;;;;;30.83;21.08;;;15.30;99.90;;;;;;4913560;29;20244;-90
2023/10/07 07:57:04;;;;;;;30.35;20.77;;;15.30;99.90;;;;;;4944123;29;20170;-93
2023/10/07 07:59:34;;;;;;;29.42;19.90;;;15.40;99.90;;;;;;4927506;29;20178;-95
2023/10/07 08:02:12;;;;;;;30.20;20.90;;;15.40;99.90;;;;;;4928823;29;20181;-91
2023/10/07 08:04:45;;;;;;;25.92;20.13;;;15.50;99.90;;;;;;4929921;29;20605;-89
2023/10/07 08:07:18;;;;;;;29.95;21.08;;;15.50;99.90;;;;;;4928579;29;20174;-90
2023/10/07 08:09:51;;;;;;;31.80;21.95;;;15.50;99.90;;;;;;4944230;29;20208;-92
2023/10/07 08:12:28;;;;;;;33.20;21.60;;;15.50;99.90;;;;;;4927628;29;20181;-93
2023/10/07 08:14:58;;;;;;;30.45;21.88;;;15.50;99.90;;;;;;4927579;29;20224;-91
2023/10/07 08:17:27;;;;;;;31.33;22.60;;;15.50;99.90;;;;;;4928140;29;20805;-92
2023/10/07 08:20:07;;;;;;;29.25;21.05;;;15.60;99.90;;;;;;4930261;29;20190;-89
2023/10/07 08:22:46;;;;;;;28.20;21.63;;;15.60;99.90;;;;;;4943926;29;20264;-91
2023/10/07 08:28:04;;;;;;;32.55;22.10;;;15.60;99.90;;;;;;4945072;29;20201;-90
2023/10/07 08:30:37;;;;;;;31.13;21.50;;;15.60;99.90;;;;;;4943978;29;20158;-90
2023/10/07 08:33:06;;;;;;;29.55;22.23;;;15.60;99.90;;;;;;4926715;29;20190;-90
2023/10/07 08:35:34;;;;;;;34.47;22.63;;;15.60;99.90;;;;;;4926550;29;20672;-91
2023/10/07 08:38:19;;;;;;;34.03;22.70;;;15.60;99.90;;;;;;4929109;29;20202;-92
2023/10/07 08:41:04;;;;;;;25.40;20.10;;;15.60;99.90;;;;;;4928842;29;20193;-91
2023/10/07 08:43:37;;;;;;;30.25;21.35;;;15.60;99.90;;;;;;4926017;29;20170;-87
2023/10/07 08:46:08;;;;;;;32.53;21.08;;;15.60;99.90;;;;;;4925942;29;20178;-89
2023/10/07 08:48:38;;;;;;;29.00;21.33;;;15.70;99.90;;;;;;4926277;29;20170;-87
2023/10/07 08:51:14;;;;;;;30.98;20.73;;;15.70;99.90;;;;;;4944612;29;20173;-89
2023/10/07 08:53:40;;;;;;;25.73;20.60;;;15.70;99.90;;;;;;4943700;29;20201;-90
2023/10/07 08:56:10;;;;;;;26.92;19.92;;;15.70;99.90;;;;;;4944908;29;20196;-87
2023/10/07 08:58:41;;;;;;;31.73;21.65;;;15.70;99.90;;;;;;4960894;28;20177;-90
2023/10/07 09:01:24;;;;;;;26.10;20.00;;;15.80;99.90;;;;;;4947794;29;20170;-90
2023/10/07 09:03:52;;;;;;;27.70;20.27;;;15.80;99.90;;;;;;4963630;29;20184;-93
2023/10/07 09:06:19;;;;;;;24.98;18.67;;;15.80;99.90;;;;;;4947116;29;20192;-88
2023/10/07 09:08:45;;;;;;;26.67;20.42;;;15.90;99.90;;;;;;4947468;29;20512;-92
2023/10/07 09:11:13;;;;;;;31.60;20.92;;;15.90;99.90;;;;;;4946882;29;20185;-89
2023/10/07 09:13:39;;;;;;;29.08;21.55;;;15.90;99.90;;;;;;4947162;29;20304;-87
2023/10/07 09:16:07;;;;;;;33.80;20.63;;;15.80;99.90;;;;;;4946962;29;20181;-93
2023/10/07 09:18:41;;;;;;;30.75;22.55;;;15.90;99.90;;;;;;4930482;29;20233;-89
2023/10/07 09:21:19;;;;;;;31.02;21.40;;;15.80;99.90;;;;;;4928464;29;20222;-87
2023/10/07 09:23:51;;;;;;;28.85;21.75;;;15.80;99.90;;;;;;4928272;29;20197;-95
2023/10/07 09:26:30;;;;;;;31.35;21.92;;;15.90;99.90;;;;;;4927787;29;20186;-90
2023/10/07 09:29:06;;;;;;;31.17;22.35;;;15.80;99.90;;;;;;4928119;29;20185;-92
2023/10/07 09:31:35;;;;;;;32.70;22.67;;;15.80;99.90;;;;;;4928506;29;20178;-91
2023/10/07 09:34:09;;;;;;;30.73;21.98;;;15.90;99.90;;;;;;4928067;29;20220;-91
2023/10/07 09:36:40;;;;;;;30.23;21.88;;;15.90;99.90;;;;;;4927862;29;20174;-93
2023/10/07 09:41:38;;;;;;;29.17;21.38;;;16.00;99.90;;;;;;4944582;29;20478;-91
2023/10/07 09:44:19;;;;;;;29.15;20.10;;;16.10;99.90;;;;;;4927774;29;20174;-89
2023/10/07 09:46:52;;;;;;;28.52;20.08;;;16.10;99.90;;;;;;4927573;29;20188;-89
2023/10/07 09:49:20;;;;;;;30.40;21.15;;;16.20;99.90;;;;;;4927483;29;20174;-92
2023/10/07 09:52:17;;;;;;;36.70;21.67;;;16.20;99.90;;;;;;4927535;29;20186;-91
2023/10/07 09:55:18;;;;;;;29.85;20.17;;;16.30;99.90;;;;;;4927221;29;20334;-88
2023/10/07 09:58:17;;;;;;;31.17;20.60;;;16.30;99.90;;;;;;4927225;29;20177;-90
2023/10/07 10:01:05;;;;;;;28.10;20.40;;;16.40;99.90;;;;;;4927133;29;20174;-95
2023/10/07 10:03:59;;;;;;;29.50;19.73;;;16.40;99.90;;;;;;4927204;29;20738;-88
2023/10/07 10:06:55;;;;;;;25.05;19.35;;;16.40;99.90;;;;;;4926492;29;20194;-90
2023/10/07 10:09:27;;;;;;;33.38;20.52;;;16.40;99.90;;;;;;4925674;29;20205;-93
2023/10/07 10:12:23;;;;;;;31.00;19.95;;;16.40;99.90;;;;;;4926851;29;20182;-90
2023/10/07 10:15:50;;;;;;;30.63;18.85;;;16.40;99.90;;;;;;4942788;29;20202;-94
2023/10/07 10:17:53;;;;;;;24.70;17.92;;;16.40;99.90;;;;;;4953621;28;20221;-93
2023/10/07 10:20:27;;;;;;;24.40;17.50;;;16.40;99.90;;;;;;4945477;29;20181;-89
2023/10/07 10:28:23;;;;;;;28.75;18.73;;;16.40;99.90;;;;;;4993640;28;20177;-91
2023/10/07 10:34:14;;;;;;;30.20;18.02;;;16.50;99.90;;;;;;4997853;28;20220;-90
2023/10/07 10:36:48;;;;;;;24.95;17.75;;;16.50;99.90;;;;;;4976809;28;20179;-90
2023/10/07 10:39:25;;;;;;;26.55;17.50;;;16.60;99.90;;;;;;5069614;23;20236;-93
2023/10/07 10:42:13;;;;;;;27.02;17.52;;;16.60;99.90;;;;;;4968247;29;20193;-90
2023/10/07 10:44:39;;;;;;;23.33;16.90;;;16.70;99.90;;;;;;4973478;29;20173;-92
2023/10/07 10:47:09;;;;;;;25.55;16.42;;;16.70;99.90;;;;;;5018964;23;20308;-91
2023/10/07 10:49:35;;;;;;;25.63;16.88;;;16.70;99.90;;;;;;4966246;29;20208;-93
2023/10/07 10:52:08;;;;;;;27.60;17.02;;;16.70;99.90;;;;;;4966852;28;20182;-91
2023/10/07 10:54:36;;;;;;;24.55;16.77;;;16.70;99.90;;;;;;4946825;29;20225;-90
2023/10/07 10:57:05;;;;;;;22.25;16.92;;;16.70;99.90;;;;;;4963358;29;20192;-90
2023/10/07 10:59:47;;;;;;;30.00;18.40;;;16.70;99.90;;;;;;4963787;29;20272;-88
2023/10/07 11:02:20;;;;;;;29.33;18.65;;;16.70;99.90;;;;;;4965022;28;20169;-91
2023/10/07 11:04:54;;;;;;;30.27;19.42;;;16.60;99.90;;;;;;4962705;29;20231;-93
2023/10/07 11:07:24;;;;;;;26.90;19.08;;;16.60;99.90;;;;;;4946683;29;20181;-92
2023/10/07 11:09:54;;;;;;;29.92;19.08;;;16.50;99.90;;;;;;4962122;29;20227;-90
2023/10/07 11:12:22;;;;;;;29.67;19.25;;;16.60;99.90;;;;;;4970615;29;20192;-95
2023/10/07 11:14:48;;;;;;;29.08;19.35;;;16.50;99.90;;;;;;4978579;23;20308;-89
2023/10/07 11:17:16;;;;;;;27.33;19.52;;;16.60;99.90;;;;;;4973262;23;20252;-91
2023/10/07 11:19:48;;;;;;;30.45;20.25;;;16.60;99.90;;;;;;4969297;29;20590;-96
2023/10/07 11:22:19;;;;;;;30.92;21.23;;;16.60;99.90;;;;;;4984825;23;20233;-95
2023/10/07 11:24:50;;;;;;;33.70;21.38;;;16.70;99.90;;;;;;4950999;29;20241;-96
2023/10/07 11:27:37;;;;;;;27.52;20.17;;;16.80;99.90;;;;;;4942390;29;20185;-91
2023/10/07 11:30:11;;;;;;;33.25;21.00;;;16.90;99.90;;;;;;4958316;29;20193;-94
2023/10/07 11:32:45;;;;;;;35.58;21.13;;;17.00;99.90;;;;;;4971023;29;20184;-94
2023/10/07 11:35:27;;;;;;;30.50;19.65;;;17.00;99.90;;;;;;4969907;29;20235;-96
2023/10/07 11:37:57;;;;;;;25.15;18.17;;;17.10;99.90;;;;;;4952823;29;20266;-91
2023/10/07 11:40:24;;;;;;;26.83;18.67;;;17.30;99.90;;;;;;4922943;29;20185;-93
2023/10/07 11:42:54;;;;;;;27.35;18.33;;;17.40;99.90;;;;;;4957821;29;20228;-95
2023/10/07 11:45:26;;;;;;;28.77;18.50;;;17.50;99.90;;;;;;4986732;23;20236;-90
2023/10/07 11:47:57;;;;;;;27.05;17.13;;;17.60;99.90;;;;;;4983497;23;20244;-93
2023/10/07 11:50:27;;;;;;;25.40;16.50;;;17.60;99.90;;;;;;4966653;28;20177;-91
2023/10/07 11:52:56;;;;;;;23.55;15.70;;;17.60;99.90;;;;;;4968666;28;20607;-93
2023/10/07 11:55:24;;;;;;;23.08;15.75;;;17.70;99.90;;;;;;4956834;28;20244;-92
2023/10/07 11:57:49;;;;;;;22.08;15.43;;;17.70;99.90;;;;;;4956236;28;20268;-90
2023/10/07 12:00:28;;;;;;;19.98;14.43;;;17.80;99.90;;;;;;4972224;28;20184;-94
2023/10/07 12:03:17;;;;;;;22.45;14.48;;;17.70;99.90;;;;;;4989573;28;20267;-92
2023/10/07 12:05:46;;;;;;;21.60;14.13;;;17.70;99.90;;;;;;4996284;28;20165;-96
2023/10/07 12:08:12;;;;;;;19.25;14.52;;;17.70;99.90;;;;;;5073669;23;20329;-93
2023/10/07 12:10:38;;;;;;;20.17;13.57;;;17.80;99.90;;;;;;4963899;29;20242;-92
2023/10/07 12:13:19;;;;;;;17.30;12.48;;;17.90;99.90;;;;;;4964646;29;20520;-92
2023/10/07 12:15:45;;;;;;;18.02;13.07;;;18.00;99.90;;;;;;4963480;29;20236;-92
2023/10/07 12:18:16;;;;;;;17.83;12.45;;;18.00;99.90;;;;;;4963017;29;20221;-90
2023/10/07 12:20:42;;;;;;;16.65;11.32;;;18.00;99.90;;;;;;4958497;29;20659;-94
2023/10/07 12:23:13;;;;;;;17.20;11.30;;;18.00;99.90;;;;;;4960733;28;20185;-91
2023/10/07 12:25:41;;;;;;;15.70;11.38;;;18.00;99.90;;;;;;4962463;29;20178;-91
2023/10/07 12:28:09;;;;;;;19.65;12.07;;;18.00;99.90;;;;;;4962112;29;20272;-90
2023/10/07 12:30:37;;;;;;;17.52;10.80;;;18.00;99.90;;;;;;4967260;29;20182;-90
2023/10/07 12:33:33;;;;;;;16.55;10.35;;;17.90;99.90;;;;;;4966162;28;20185;-92
2023/10/07 12:35:58;;;;;;;15.93;10.02;;;18.00;99.90;;;;;;4966985;29;20209;-88
2023/10/07 12:38:24;;;;;;;20.13;9.85;;;18.00;99.90;;;;;;4967928;29;20188;-90
2023/10/07 12:40:51;;;;;;;13.75;9.00;;;18.10;99.90;;;;;;4965097;29;20293;-92
2023/10/07 12:43:22;;;;;;;13.68;8.15;;;18.00;99.90;;;;;;4965120;29;20185;-92
2023/10/07 12:45:48;;;;;;;14.00;8.30;;;18.00;99.90;;;;;;4953243;29;20246;-91
2023/10/07 12:48:14;;;;;;;14.23;8.50;;;18.00;99.90;;;;;;4966425;29;20624;-90
2023/10/07 12:50:43;;;;;;;14.48;8.25;;;18.00;99.90;;;;;;4968577;29;20680;-88
2023/10/07 12:53:13;;;;;;;13.57;7.97;;;18.00;99.90;;;;;;4968427;28;20241;-96
2023/10/07 12:55:39;;;;;;;10.88;7.40;;;17.90;99.90;;;;;;4968258;29;20205;-92
2023/10/07 12:58:15;;;;;;;14.77;7.10;;;17.90;99.90;;;;;;4967015;29;20205;-91
2023/10/07 13:00:55;;;;;;;17.70;7.90;;;18.00;99.90;;;;;;4968363;28;20727;-94
2023/10/07 13:03:44;;;;;;;15.07;7.40;;;17.90;99.90;;;;;;4971165;28;20177;-89
2023/10/07 13:06:15;;;;;;;15.30;7.65;;;17.80;99.90;;;;;;5014570;23;20288;-94
2023/10/07 13:08:41;;;;;;;13.45;7.32;;;17.90;99.90;;;;;;4981131;28;20181;-90
2023/10/07 13:11:13;;;;;;;9.90;7.25;;;17.90;99.90;;;;;;4982825;28;20233;-93
2023/10/07 13:13:45;;;;;;;15.15;7.20;;;17.90;99.90;;;;;;4981997;28;20172;-91
2023/10/07 13:16:12;;;;;;;14.23;7.55;;;17.90;99.90;;;;;;4969141;29;20189;-96
2023/10/07 13:18:42;;;;;;;13.10;7.25;;;17.90;99.90;;;;;;4946966;29;20233;-91
2023/10/07 13:21:13;;;;;;;14.07;6.57;;;18.00;99.90;;;;;;4946378;29;20185;-91
2023/10/07 13:23:46;;;;;;;11.15;6.70;;;18.00;99.90;;;;;;4962892;29;20181;-89
2023/10/07 13:26:12;;;;;;;10.65;6.60;;;18.10;99.90;;;;;;4963144;29;20255;-89
2023/10/07 13:28:38;;;;;;;15.02;6.50;;;18.00;99.90;;;;;;4962979;29;20620;-90
2023/10/07 13:31:07;;;;;;;11.65;7.30;;;18.00;99.90;;;;;;4962902;29;20663;-95
2023/10/07 13:33:41;;;;;;;13.20;7.75;;;18.00;99.90;;;;;;4962305;29;20177;-89
2023/10/07 13:36:07;;;;;;;10.90;6.70;;;18.10;99.90;;;;;;4962350;29;20213;-91
2023/10/07 13:38:35;;;;;;;10.27;6.40;;;18.10;99.90;;;;;;4963943;28;20181;-89
2023/10/07 13:41:03;;;;;;;9.27;6.93;;;18.00;99.90;;;;;;4946779;29;20193;-88
2023/10/07 13:43:36;;;;;;;10.75;6.80;;;18.00;99.90;;;;;;4962333;29;20213;-87
2023/10/07 13:46:12;;;;;;;8.75;6.65;;;18.00;99.90;;;;;;4961284;29;20196;-89
2023/10/07 13:48:37;;;;;;;12.68;7.32;;;18.10;99.90;;;;;;4961721;29;20269;-91
2023/10/07 13:51:06;;;;;;;10.05;6.82;;;18.10;99.90;;;;;;4962497;29;20647;-88
2023/10/07 13:56:43;;;;;;;11.20;7.28;;;18.10;99.90;;;;;;4963240;29;20274;-92
2023/10/07 13:59:08;;;;;;;9.45;6.85;;;18.10;99.90;;;;;;4961395;29;20177;-89
2023/10/07 14:01:34;;;;;;;11.65;6.80;;;18.10;99.90;;;;;;4961245;29;20181;-89
2023/10/07 14:04:03;;;;;;;17.45;6.60;;;18.10;99.90;;;;;;4962394;29;20177;-90
2023/10/07 14:06:33;;;;;;;10.30;6.40;;;18.20;99.90;;;;;;4961175;28;20261;-92
2023/10/07 14:08:58;;;;;;;11.63;6.40;;;18.30;99.90;;;;;;4960469;29;20189;-89
2023/10/07 14:11:24;;;;;;;14.55;6.57;;;18.30;99.90;;;;;;4962218;29;20521;-88
2023/10/07 14:14:04;;;;;;;9.77;5.60;;;18.30;99.90;;;;;;4967636;29;20205;-89
2023/10/07 14:16:34;;;;;;;8.18;5.68;;;18.50;99.90;;;;;;4972175;28;20620;-93
2023/10/07 14:19:01;;;;;;;9.45;4.75;;;18.60;99.90;;;;;;4973678;29;20197;-89
2023/10/07 14:21:30;;;;;;;9.45;4.97;;;18.70;99.90;;;;;;4973852;29;20193;-88
2023/10/07 14:23:56;;;;;;;7.30;4.57;;;18.70;99.90;;;;;;4981695;23;20234;-92